Time;durP1;ratioP1;P1;durP2;ratioP2;P2;SDS_P1;SDS_P2;PMS_P1;PMS_P2;Temp;Humidity;BMP_temperature;BMP_pressure;BME280_temperature;BME280_humidity;BME280_pressure;Samples;Min_cycle;Max_cycle;Signal;HPM_P1;HPM_P2
2023/08/15 00:02:09;;;;;;;4.68;2.10;;;21.80;97.00;;;;;;5042909;28;20083;-80
2023/08/15 00:04:35;;;;;;;5.90;2.15;;;21.80;97.00;;;;;;5032855;28;20495;-80
2023/08/15 00:07:05;;;;;;;5.97;2.13;;;21.80;97.00;;;;;;5034001;28;20460;-80
2023/08/15 00:09:33;;;;;;;4.72;2.17;;;21.70;96.90;;;;;;5032570;28;20103;-80
2023/08/15 00:11:59;;;;;;;4.32;2.10;;;21.70;96.90;;;;;;5033800;28;20087;-80
2023/08/15 00:14:26;;;;;;;5.40;2.13;;;21.60;97.00;;;;;;5033609;28;20045;-80
2023/08/15 00:16:51;;;;;;;5.13;2.15;;;21.60;97.00;;;;;;5032933;28;20487;-80
2023/08/15 00:19:17;;;;;;;4.40;2.38;;;21.50;97.00;;;;;;5033581;28;20049;-80
2023/08/15 00:21:43;;;;;;;4.28;2.10;;;21.50;97.40;;;;;;5033491;28;20069;-80
2023/08/15 00:24:09;;;;;;;4.82;2.55;;;21.50;97.00;;;;;;5033265;28;20037;-80
2023/08/15 00:26:34;;;;;;;4.15;2.20;;;21.40;97.00;;;;;;5032672;28;20092;-80
2023/08/15 00:29:00;;;;;;;4.55;2.20;;;21.40;97.10;;;;;;5033052;28;20037;-80
2023/08/15 00:31:25;;;;;;;4.65;2.60;;;21.30;97.10;;;;;;5032669;28;20175;-80
2023/08/15 00:33:51;;;;;;;4.60;2.28;;;21.30;97.00;;;;;;5047646;28;20041;-79
2023/08/15 00:36:17;;;;;;;5.65;2.47;;;21.20;97.00;;;;;;5033237;28;20229;-80
2023/08/15 00:38:43;;;;;;;5.28;2.40;;;21.20;97.10;;;;;;5034852;28;20048;-80
2023/08/15 00:41:09;;;;;;;5.03;2.38;;;21.10;97.10;;;;;;5033135;28;20504;-80
2023/08/15 00:43:35;;;;;;;5.55;2.42;;;21.10;97.20;;;;;;5032995;28;20268;-79
2023/08/15 00:46:03;;;;;;;4.22;2.25;;;21.00;97.20;;;;;;5032394;28;20479;-80
2023/08/15 00:48:30;;;;;;;5.30;2.60;;;21.00;97.20;;;;;;5032714;28;20154;-80
2023/08/15 00:50:58;;;;;;;6.03;2.60;;;20.90;97.10;;;;;;5032287;28;20503;-80
2023/08/15 00:53:25;;;;;;;5.00;2.50;;;20.90;97.20;;;;;;5032915;28;20056;-80
2023/08/15 00:55:54;;;;;;;5.45;2.60;;;20.80;97.30;;;;;;5032383;28;20049;-80
2023/08/15 00:58:19;;;;;;;4.82;2.40;;;20.80;97.40;;;;;;5032248;28;20049;-80
2023/08/15 01:00:45;;;;;;;5.75;2.83;;;20.70;97.40;;;;;;5032752;28;20091;-80
2023/08/15 01:03:12;;;;;;;4.82;2.40;;;20.70;97.40;;;;;;5032493;28;20503;-80
2023/08/15 01:05:39;;;;;;;6.80;2.95;;;20.70;97.50;;;;;;5032418;28;20045;-79
2023/08/15 01:08:08;;;;;;;6.47;2.70;;;20.60;97.60;;;;;;5032271;28;20048;-80
2023/08/15 01:10:33;;;;;;;5.20;2.60;;;20.70;97.70;;;;;;5032418;28;20450;-80
2023/08/15 01:13:25;;;;;;;6.72;3.03;;;20.70;97.70;;;;;;5032841;28;20553;-80
2023/08/15 01:15:52;;;;;;;4.93;2.63;;;20.70;97.50;;;;;;5034745;28;20045;-80
2023/08/15 01:18:30;;;;;;;5.07;2.70;;;20.70;97.80;;;;;;5031543;28;20050;-79
2023/08/15 01:20:56;;;;;;;4.75;2.80;;;20.60;97.60;;;;;;5032339;28;20056;-80
2023/08/15 01:23:35;;;;;;;4.57;2.67;;;20.70;97.70;;;;;;5031953;28;20053;-80
2023/08/15 01:26:01;;;;;;;4.68;2.50;;;20.60;97.70;;;;;;5033370;28;20176;-80
2023/08/15 01:28:27;;;;;;;4.72;2.38;;;20.60;97.70;;;;;;5031379;28;20102;-80
2023/08/15 01:30:58;;;;;;;5.65;2.67;;;20.60;97.70;;;;;;5034445;28;20049;-80
2023/08/15 01:33:38;;;;;;;4.32;2.58;;;20.60;97.70;;;;;;5030829;28;20511;-80
2023/08/15 01:36:12;;;;;;;7.13;2.78;;;20.60;97.70;;;;;;5031384;28;20621;-80
2023/08/15 01:38:54;;;;;;;5.22;2.80;;;20.50;97.70;;;;;;5031212;28;20103;-80
2023/08/15 01:41:23;;;;;;;7.05;2.92;;;20.50;97.60;;;;;;5031248;28;20048;-80
2023/08/15 01:43:50;;;;;;;5.63;2.83;;;20.50;97.80;;;;;;5035002;28;20084;-80
2023/08/15 01:46:16;;;;;;;5.15;2.80;;;20.40;97.70;;;;;;5036420;28;20121;-80
2023/08/15 01:48:42;;;;;;;6.18;2.80;;;20.40;97.80;;;;;;5036747;28;20462;-80
2023/08/15 01:51:08;;;;;;;5.78;2.95;;;20.40;97.80;;;;;;5034727;28;20487;-80
2023/08/15 01:53:36;;;;;;;7.53;3.33;;;20.40;97.80;;;;;;5036316;28;20037;-80
2023/08/15 01:56:05;;;;;;;5.72;3.10;;;20.40;97.80;;;;;;5035942;28;20511;-80
2023/08/15 01:58:33;;;;;;;6.30;3.22;;;20.30;97.80;;;;;;5036289;28;20088;-80
2023/08/15 02:01:03;;;;;;;5.20;3.00;;;20.30;97.90;;;;;;5045346;28;20557;-80
2023/08/15 02:03:28;;;;;;;5.55;3.10;;;20.30;97.90;;;;;;5038976;28;20040;-80
2023/08/15 02:05:54;;;;;;;5.93;3.22;;;20.30;97.80;;;;;;5037854;28;20079;-79
2023/08/15 02:08:21;;;;;;;7.05;3.80;;;20.20;97.70;;;;;;5044372;28;20045;-80
2023/08/15 02:10:46;;;;;;;6.15;3.47;;;20.20;97.80;;;;;;5036864;28;20045;-80
2023/08/15 02:13:12;;;;;;;5.63;3.30;;;20.10;97.90;;;;;;5034715;28;20510;-80
2023/08/15 02:15:38;;;;;;;5.70;3.40;;;20.10;98.00;;;;;;5034493;28;20364;-80
2023/08/15 02:18:06;;;;;;;6.20;3.65;;;20.10;97.90;;;;;;5036119;28;20045;-80
2023/08/15 02:20:34;;;;;;;6.20;3.47;;;20.00;97.90;;;;;;5035983;28;20052;-80
2023/08/15 02:23:00;;;;;;;5.78;3.42;;;20.10;98.00;;;;;;5035677;28;20426;-80
2023/08/15 02:25:25;;;;;;;6.80;3.67;;;20.00;98.10;;;;;;5035997;28;20057;-80
2023/08/15 02:27:51;;;;;;;5.90;3.60;;;20.00;98.10;;;;;;5034747;28;20049;-80
2023/08/15 02:30:17;;;;;;;5.88;3.40;;;20.00;98.10;;;;;;5036569;28;20060;-80
2023/08/15 02:32:43;;;;;;;7.47;3.58;;;20.00;98.00;;;;;;5036950;28;20487;-80
2023/08/15 02:35:09;;;;;;;6.47;3.75;;;20.00;98.00;;;;;;5042798;28;20116;-80
2023/08/15 02:37:34;;;;;;;7.22;3.72;;;19.90;98.00;;;;;;5035538;28;20543;-80
2023/08/15 02:40:00;;;;;;;6.22;3.78;;;19.90;98.10;;;;;;5034346;28;20099;-80
2023/08/15 02:42:26;;;;;;;5.63;3.80;;;19.80;98.10;;;;;;5050817;28;20053;-80
2023/08/15 02:44:55;;;;;;;7.57;4.30;;;19.80;98.00;;;;;;5038258;28;20051;-79
2023/08/15 02:47:20;;;;;;;6.35;4.20;;;19.80;98.10;;;;;;5036949;28;20044;-80
2023/08/15 02:49:46;;;;;;;6.70;4.00;;;19.80;98.10;;;;;;5036567;28;20057;-80
2023/08/15 02:52:11;;;;;;;6.50;4.25;;;19.70;98.10;;;;;;5040552;28;20038;-80
2023/08/15 02:54:37;;;;;;;6.20;4.30;;;19.70;98.10;;;;;;5034412;28;20038;-80
2023/08/15 02:57:03;;;;;;;6.13;4.07;;;19.70;98.20;;;;;;5035074;28;20049;-80
2023/08/15 02:59:28;;;;;;;8.05;4.63;;;19.70;98.20;;;;;;5049440;28;20054;-80
2023/08/15 03:01:54;;;;;;;6.78;4.30;;;19.70;98.20;;;;;;5035714;28;20083;-80
2023/08/15 03:04:20;;;;;;;6.40;4.25;;;19.70;98.20;;;;;;5047318;28;20080;-80
2023/08/15 03:06:46;;;;;;;6.95;4.47;;;19.60;98.10;;;;;;5041081;28;20514;-80
2023/08/15 03:09:14;;;;;;;8.75;5.13;;;19.60;98.00;;;;;;5036038;28;20073;-80
2023/08/15 03:11:39;;;;;;;7.28;5.20;;;19.60;98.10;;;;;;5032694;28;20065;-80
2023/08/15 03:14:05;;;;;;;7.03;4.60;;;19.60;98.20;;;;;;5045370;28;20504;-80
2023/08/15 03:16:30;;;;;;;6.93;4.60;;;19.60;98.20;;;;;;5055102;28;20445;-80
2023/08/15 03:18:56;;;;;;;7.25;5.00;;;19.50;98.20;;;;;;5042868;28;20132;-80
2023/08/15 03:21:22;;;;;;;7.60;4.88;;;19.50;98.10;;;;;;5035076;28;20060;-80
2023/08/15 03:23:47;;;;;;;6.50;4.47;;;19.50;98.20;;;;;;5035749;28;20041;-80
2023/08/15 03:26:13;;;;;;;7.43;5.47;;;19.50;98.10;;;;;;5034850;28;20041;-80
2023/08/15 03:28:39;;;;;;;7.53;5.18;;;19.50;98.20;;;;;;5037513;28;20049;-80
2023/08/15 03:31:05;;;;;;;8.18;5.32;;;19.50;98.10;;;;;;5050322;28;20507;-80
2023/08/15 03:33:31;;;;;;;7.30;4.97;;;19.50;98.20;;;;;;5040263;28;20067;-80
2023/08/15 03:35:57;;;;;;;6.72;4.80;;;19.40;97.90;;;;;;5038884;28;20056;-80
2023/08/15 03:38:23;;;;;;;8.23;5.07;;;19.40;97.90;;;;;;5034370;28;20127;-80
2023/08/15 03:40:59;;;;;;;7.43;5.38;;;19.40;97.90;;;;;;5036616;28;20124;-80
2023/08/15 03:43:24;;;;;;;9.68;5.50;;;19.40;98.20;;;;;;5050754;28;20145;-80
2023/08/15 03:45:50;;;;;;;6.93;4.72;;;19.40;98.20;;;;;;5035301;28;20551;-80
2023/08/15 03:48:15;;;;;;;6.93;5.07;;;19.40;97.90;;;;;;5034456;28;20049;-80
2023/08/15 03:50:41;;;;;;;7.15;4.85;;;19.30;97.90;;;;;;5034218;28;21984;-79
2023/08/15 03:53:06;;;;;;;7.88;5.03;;;19.30;97.70;;;;;;5036976;28;20132;-80
2023/08/15 03:55:32;;;;;;;7.65;5.30;;;19.30;97.60;;;;;;5034306;28;20484;-80
2023/08/15 03:57:58;;;;;;;7.50;5.20;;;19.30;97.70;;;;;;5039006;28;20061;-80
2023/08/15 04:00:24;;;;;;;9.57;5.10;;;19.30;97.70;;;;;;5033958;28;20515;-80
2023/08/15 04:02:50;;;;;;;7.50;5.60;;;19.30;97.70;;;;;;5043678;28;20045;-79
2023/08/15 04:05:17;;;;;;;7.43;5.18;;;19.30;98.00;;;;;;5020449;28;20518;-80
2023/08/15 04:07:43;;;;;;;14.10;9.00;;;19.30;98.00;;;;;;5032285;28;20462;-80
2023/08/15 04:10:11;;;;;;;8.20;5.63;;;19.30;98.20;;;;;;5037765;28;20041;-80
2023/08/15 04:12:37;;;;;;;7.03;5.30;;;19.20;97.80;;;;;;5045077;28;20045;-80
2023/08/15 04:15:04;;;;;;;8.23;5.65;;;19.30;97.60;;;;;;5047204;28;20080;-79
2023/08/15 04:17:30;;;;;;;8.13;5.47;;;19.30;97.70;;;;;;5033370;28;20053;-80
2023/08/15 04:19:56;;;;;;;8.60;5.88;;;19.30;97.90;;;;;;5035436;28;20085;-79
2023/08/15 04:22:21;;;;;;;9.63;6.30;;;19.30;98.00;;;;;;5051763;28;20091;-80
2023/08/15 04:24:47;;;;;;;8.85;5.95;;;19.20;98.10;;;;;;5045742;28;20052;-80
2023/08/15 04:27:13;;;;;;;7.68;5.50;;;19.20;98.00;;;;;;5035445;28;20034;-79
2023/08/15 04:29:38;;;;;;;7.00;5.85;;;19.20;97.80;;;;;;5050643;28;20046;-80
2023/08/15 04:32:04;;;;;;;7.93;6.07;;;19.20;97.60;;;;;;5052329;28;20495;-80
2023/08/15 04:34:30;;;;;;;9.15;6.07;;;19.20;97.60;;;;;;5036319;28;20037;-79
2023/08/15 04:36:55;;;;;;;11.93;7.32;;;19.20;97.80;;;;;;5053340;28;20091;-80
2023/08/15 04:39:21;;;;;;;8.27;6.10;;;19.20;97.80;;;;;;5050852;28;20092;-80
2023/08/15 04:41:47;;;;;;;9.15;6.28;;;19.20;98.00;;;;;;5052402;28;20045;-80
2023/08/15 04:44:13;;;;;;;9.82;7.43;;;19.20;98.20;;;;;;5050659;28;20094;-80
2023/08/15 04:46:39;;;;;;;9.25;5.82;;;19.20;98.10;;;;;;5041653;28;20128;-80
2023/08/15 04:49:05;;;;;;;8.57;6.53;;;19.20;98.30;;;;;;5050395;28;20044;-79
2023/08/15 04:51:30;;;;;;;10.00;7.50;;;19.20;98.30;;;;;;5050310;28;20497;-79
2023/08/15 04:53:56;;;;;;;7.90;5.95;;;19.20;98.40;;;;;;5044374;28;20451;-80
2023/08/15 04:56:22;;;;;;;7.88;6.38;;;19.20;98.40;;;;;;5042691;28;20437;-80
2023/08/15 04:58:48;;;;;;;9.27;6.63;;;19.20;98.40;;;;;;5048195;28;20104;-80
2023/08/15 05:01:13;;;;;;;10.52;6.70;;;19.20;98.60;;;;;;5044221;28;20049;-80
2023/08/15 05:03:39;;;;;;;7.85;5.75;;;19.20;98.50;;;;;;5033169;28;20124;-80
2023/08/15 05:06:05;;;;;;;12.02;7.63;;;19.20;98.30;;;;;;5033156;28;20049;-80
2023/08/15 05:08:30;;;;;;;9.68;6.35;;;19.20;98.40;;;;;;5038818;28;20136;-80
2023/08/15 05:10:56;;;;;;;10.32;6.20;;;19.10;98.50;;;;;;5040134;28;20049;-80
2023/08/15 05:13:22;;;;;;;9.45;5.88;;;19.10;98.50;;;;;;5048710;28;20044;-80
2023/08/15 05:15:47;;;;;;;8.10;5.70;;;19.10;98.40;;;;;;5032157;28;20041;-80
2023/08/15 05:18:15;;;;;;;7.97;5.70;;;19.20;98.50;;;;;;5032528;28;20083;-80
2023/08/15 05:20:42;;;;;;;8.88;6.10;;;19.10;98.20;;;;;;5033180;28;20498;-80
2023/08/15 05:23:07;;;;;;;9.45;6.25;;;19.10;98.20;;;;;;5033115;28;20053;-80
2023/08/15 05:25:33;;;;;;;12.90;7.15;;;19.10;98.30;;;;;;5033027;28;20034;-80
2023/08/15 05:28:03;;;;;;;10.85;6.07;;;19.10;98.50;;;;;;5032794;28;20041;-80
2023/08/15 05:30:29;;;;;;;12.00;6.90;;;19.10;98.50;;;;;;5032197;28;20045;-80
2023/08/15 05:32:54;;;;;;;8.10;5.88;;;19.10;98.60;;;;;;5032865;28;20496;-80
2023/08/15 05:35:20;;;;;;;7.80;5.50;;;19.10;98.60;;;;;;5032711;28;20048;-80
2023/08/15 05:37:46;;;;;;;8.98;5.95;;;19.10;98.50;;;;;;5031834;28;20060;-80
2023/08/15 05:40:11;;;;;;;7.55;6.00;;;19.10;98.50;;;;;;5033054;28;20049;-80
2023/08/15 05:42:37;;;;;;;9.77;5.97;;;19.10;98.50;;;;;;5033060;28;20086;-80
2023/08/15 05:45:03;;;;;;;9.38;6.35;;;19.10;98.50;;;;;;5032935;28;20045;-80
2023/08/15 05:47:29;;;;;;;16.15;5.88;;;19.10;98.60;;;;;;5036378;28;20060;-80
2023/08/15 05:49:55;;;;;;;16.73;6.47;;;19.10;98.70;;;;;;5033962;28;20045;-80
2023/08/15 05:52:21;;;;;;;11.60;5.97;;;19.10;98.90;;;;;;5051089;28;20041;-80
2023/08/15 05:54:46;;;;;;;8.98;5.15;;;19.10;99.00;;;;;;5037004;28;20055;-80
2023/08/15 05:57:12;;;;;;;8.70;5.68;;;19.10;98.90;;;;;;5036076;28;20419;-79
2023/08/15 05:59:37;;;;;;;11.75;5.82;;;19.10;98.60;;;;;;5048269;28;20052;-80
2023/08/15 06:02:03;;;;;;;8.90;5.25;;;19.00;98.60;;;;;;5015046;28;20059;-80
2023/08/15 06:04:29;;;;;;;9.27;5.60;;;19.00;98.50;;;;;;5031234;28;20046;-80
2023/08/15 06:06:54;;;;;;;9.82;5.50;;;19.00;98.50;;;;;;5035278;28;20480;-80
2023/08/15 06:09:20;;;;;;;10.45;5.80;;;19.00;98.50;;;;;;5037669;28;20084;-80
2023/08/15 06:11:45;;;;;;;9.63;5.10;;;19.00;98.70;;;;;;5049423;28;20052;-80
2023/08/15 06:14:11;;;;;;;10.75;5.53;;;19.00;98.60;;;;;;5048629;28;20506;-80
2023/08/15 06:16:37;;;;;;;12.77;5.25;;;19.00;98.40;;;;;;5032492;28;20484;-80
2023/08/15 06:19:02;;;;;;;8.80;5.10;;;19.00;98.60;;;;;;5034552;28;20049;-79
2023/08/15 06:21:28;;;;;;;13.48;5.40;;;19.00;98.60;;;;;;5052516;28;20513;-80
2023/08/15 06:23:54;;;;;;;11.95;5.18;;;19.00;98.80;;;;;;5050666;28;20041;-80
2023/08/15 06:26:19;;;;;;;9.80;5.07;;;18.90;99.00;;;;;;5050690;28;20041;-80
2023/08/15 06:28:45;;;;;;;7.53;4.68;;;18.90;98.90;;;;;;5038387;28;20049;-80
2023/08/15 06:31:10;;;;;;;10.13;4.57;;;18.90;98.80;;;;;;5052130;28;20048;-80
2023/08/15 06:33:36;;;;;;;8.68;4.47;;;18.90;99.10;;;;;;5051599;28;20044;-80
2023/08/15 06:36:02;;;;;;;9.57;4.43;;;18.90;99.00;;;;;;5054119;28;20403;-80
2023/08/15 06:38:28;;;;;;;7.68;4.35;;;19.00;99.10;;;;;;5054595;28;20040;-80
2023/08/15 06:40:53;;;;;;;10.60;4.60;;;19.00;99.10;;;;;;5036934;28;20038;-80
2023/08/15 06:43:19;;;;;;;8.77;4.43;;;19.00;99.50;;;;;;5036641;28;20959;-79
2023/08/15 06:45:44;;;;;;;11.05;4.38;;;19.00;99.90;;;;;;5036642;28;20053;-80
2023/08/15 06:48:10;;;;;;;12.15;4.40;;;19.00;99.90;;;;;;5042229;28;20033;-80
2023/08/15 06:50:36;;;;;;;9.43;3.92;;;19.10;99.90;;;;;;5049440;28;20537;-80
2023/08/15 06:53:01;;;;;;;11.80;4.60;;;19.10;99.90;;;;;;5040455;28;20087;-80
2023/08/15 06:55:27;;;;;;;9.40;3.90;;;19.20;99.90;;;;;;5042527;28;20529;-80
2023/08/15 06:57:53;;;;;;;10.30;3.75;;;19.20;99.90;;;;;;5038383;28;20061;-80
2023/08/15 07:00:19;;;;;;;10.60;3.80;;;19.20;99.90;;;;;;5035295;28;20046;-80
2023/08/15 07:02:45;;;;;;;13.85;4.38;;;19.30;99.90;;;;;;5035286;28;20046;-80
2023/08/15 07:05:10;;;;;;;12.75;4.10;;;19.30;99.90;;;;;;5035338;28;20049;-80
2023/08/15 07:07:39;;;;;;;13.88;4.18;;;19.40;99.90;;;;;;5034242;28;20455;-80
2023/08/15 07:10:06;;;;;;;9.93;3.60;;;19.50;99.90;;;;;;5035254;28;20552;-80
2023/08/15 07:12:33;;;;;;;9.50;3.60;;;19.50;99.90;;;;;;5036131;28;20115;-80
2023/08/15 07:14:58;;;;;;;9.73;3.13;;;19.60;99.90;;;;;;5053764;28;20041;-80
2023/08/15 07:17:24;;;;;;;11.98;3.22;;;19.60;99.90;;;;;;5053516;28;20083;-80
2023/08/15 07:19:50;;;;;;;14.88;3.67;;;19.70;99.90;;;;;;5054878;28;20399;-80
2023/08/15 07:22:15;;;;;;;20.45;3.60;;;19.70;99.90;;;;;;5054933;28;20084;-80
2023/08/15 07:24:41;;;;;;;11.80;3.10;;;19.80;99.90;;;;;;5053040;28;20080;-80
2023/08/15 07:27:07;;;;;;;12.00;3.33;;;19.90;99.90;;;;;;5050481;28;20058;-80
2023/08/15 07:29:33;;;;;;;12.90;3.55;;;20.00;99.90;;;;;;5044528;28;20049;-80
2023/08/15 07:31:58;;;;;;;13.55;3.38;;;20.10;99.90;;;;;;5053732;28;20053;-80
2023/08/15 07:34:24;;;;;;;11.07;3.33;;;20.10;99.90;;;;;;5046813;28;20128;-80
2023/08/15 07:36:49;;;;;;;14.60;2.97;;;20.20;99.90;;;;;;5054794;28;20049;-80
2023/08/15 07:39:15;;;;;;;9.93;2.50;;;20.20;99.90;;;;;;5051580;28;20110;-80
2023/08/15 07:41:41;;;;;;;10.43;2.10;;;20.30;99.90;;;;;;5054282;28;20080;-80
2023/08/15 07:44:07;;;;;;;10.05;2.50;;;20.40;99.90;;;;;;5054547;28;20056;-80
2023/08/15 07:46:33;;;;;;;12.60;2.58;;;20.40;99.90;;;;;;5054310;28;20045;-80
2023/08/15 07:48:58;;;;;;;8.73;2.38;;;20.50;99.90;;;;;;5054403;28;20033;-80
2023/08/15 07:51:24;;;;;;;11.43;2.50;;;20.60;99.90;;;;;;5052702;28;20076;-80
2023/08/15 07:53:50;;;;;;;13.30;2.65;;;20.60;99.90;;;;;;5018248;28;20046;-80
2023/08/15 07:56:15;;;;;;;8.30;2.10;;;20.60;99.90;;;;;;5014350;28;20041;-80
2023/08/15 07:58:41;;;;;;;7.28;1.90;;;20.60;99.90;;;;;;5014686;28;20392;-80
2023/08/15 08:01:08;;;;;;;10.63;2.35;;;20.60;99.90;;;;;;5030702;28;20053;-80
2023/08/15 08:03:38;;;;;;;9.60;2.45;;;20.70;99.80;;;;;;5063562;28;20065;-80
2023/08/15 08:06:04;;;;;;;8.45;1.98;;;20.70;99.70;;;;;;5033940;28;20052;-80
2023/08/15 08:08:29;;;;;;;10.38;1.98;;;20.70;99.70;;;;;;5023227;28;20042;-80
2023/08/15 08:10:55;;;;;;;8.35;2.00;;;20.70;99.70;;;;;;5014456;28;20076;-80
2023/08/15 08:13:21;;;;;;;8.85;1.88;;;20.80;99.60;;;;;;5022115;28;20052;-80
2023/08/15 08:15:47;;;;;;;9.43;2.03;;;20.80;99.60;;;;;;5032306;28;20045;-80
2023/08/15 08:18:13;;;;;;;6.68;1.80;;;20.90;99.60;;;;;;5021691;28;20387;-80
2023/08/15 08:20:39;;;;;;;7.60;2.00;;;20.90;99.50;;;;;;5044625;28;20039;-80
2023/08/15 08:23:05;;;;;;;8.88;1.67;;;21.00;99.40;;;;;;5034031;28;20050;-80
2023/08/15 08:25:31;;;;;;;9.07;1.65;;;21.10;99.40;;;;;;5020903;28;20392;-80
2023/08/15 08:27:56;;;;;;;8.48;1.70;;;21.10;99.20;;;;;;5014248;28;20365;-80
2023/08/15 08:30:23;;;;;;;9.07;1.92;;;21.20;98.90;;;;;;5018470;28;20081;-80
2023/08/15 08:32:50;;;;;;;6.97;1.50;;;21.30;99.00;;;;;;5028959;28;20042;-80
2023/08/15 08:35:17;;;;;;;7.95;1.70;;;21.30;98.80;;;;;;5044373;28;20403;-80
2023/08/15 08:37:44;;;;;;;9.45;1.80;;;21.40;98.90;;;;;;5039970;28;20492;-80
2023/08/15 08:40:12;;;;;;;7.00;1.60;;;21.50;98.80;;;;;;5033563;28;20523;-80
2023/08/15 08:42:40;;;;;;;8.93;1.55;;;21.60;98.60;;;;;;5033437;28;20072;-80
2023/08/15 08:45:08;;;;;;;8.93;1.85;;;21.70;98.60;;;;;;5034194;28;20053;-80
2023/08/15 08:47:34;;;;;;;8.23;1.70;;;21.80;98.50;;;;;;5033392;28;20400;-80
2023/08/15 08:50:00;;;;;;;8.65;1.98;;;21.90;98.20;;;;;;5033422;28;20041;-80
2023/08/15 08:52:30;;;;;;;7.75;1.50;;;21.90;98.10;;;;;;5032953;28;20041;-80
2023/08/15 08:54:56;;;;;;;6.75;1.52;;;22.00;97.90;;;;;;5034274;28;20050;-80
2023/08/15 08:57:26;;;;;;;6.15;1.45;;;22.10;97.80;;;;;;5034354;28;20120;-80
2023/08/15 08:59:55;;;;;;;7.20;1.70;;;22.20;97.60;;;;;;5032504;28;20049;-80
2023/08/15 09:02:22;;;;;;;8.65;1.90;;;22.30;97.20;;;;;;5034254;28;20041;-79
2023/08/15 09:04:48;;;;;;;6.28;1.55;;;22.30;96.70;;;;;;5032979;28;20049;-80
2023/08/15 09:07:16;;;;;;;5.78;1.45;;;22.30;96.50;;;;;;5045520;28;20041;-80
2023/08/15 09:09:41;;;;;;;7.03;1.48;;;22.40;96.10;;;;;;5032249;28;20120;-80
2023/08/15 09:12:07;;;;;;;8.00;1.90;;;22.40;96.00;;;;;;5032918;28;20133;-80
2023/08/15 09:14:39;;;;;;;8.63;1.63;;;22.40;96.00;;;;;;5033224;28;20042;-80
2023/08/15 09:17:05;;;;;;;6.88;1.55;;;22.50;95.70;;;;;;5027658;28;20488;-79
2023/08/15 09:19:39;;;;;;;7.32;1.70;;;22.50;95.80;;;;;;5013074;28;20057;-79
2023/08/15 09:22:04;;;;;;;7.63;1.65;;;22.50;95.90;;;;;;5019470;28;20087;-79
2023/08/15 09:24:33;;;;;;;8.02;1.58;;;22.50;95.70;;;;;;5018747;28;20076;-80
2023/08/15 09:27:05;;;;;;;7.78;1.50;;;22.50;95.50;;;;;;5016603;28;20042;-79
2023/08/15 09:29:35;;;;;;;6.10;1.40;;;22.50;95.60;;;;;;5013422;28;20050;-79
2023/08/15 09:32:00;;;;;;;5.82;1.33;;;22.50;95.40;;;;;;5047782;28;20088;-80
2023/08/15 09:34:26;;;;;;;7.15;1.42;;;22.50;96.00;;;;;;5049484;28;20072;-79
2023/08/15 09:36:52;;;;;;;4.93;1.38;;;22.60;95.90;;;;;;5052140;28;20549;-82
2023/08/15 09:39:18;;;;;;;5.03;1.52;;;22.60;95.80;;;;;;5013159;28;20080;-80
2023/08/15 09:41:46;;;;;;;6.70;1.40;;;22.70;95.20;;;;;;5013162;28;20500;-80
2023/08/15 09:44:12;;;;;;;6.28;1.40;;;22.70;95.10;;;;;;5012912;28;20074;-81
2023/08/15 09:46:38;;;;;;;5.25;1.50;;;22.70;95.60;;;;;;5012695;28;20041;-80
2023/08/15 09:49:05;;;;;;;6.03;1.55;;;22.80;95.30;;;;;;5012839;28;20042;-80
2023/08/15 09:51:33;;;;;;;6.28;1.60;;;22.90;95.20;;;;;;5012678;28;20050;-80
2023/08/15 09:54:01;;;;;;;5.18;1.40;;;22.90;94.70;;;;;;5013015;28;20042;-80
2023/08/15 09:56:26;;;;;;;7.68;1.80;;;23.00;94.80;;;;;;5013015;28;20050;-80
2023/08/15 09:58:52;;;;;;;7.47;1.60;;;23.00;95.10;;;;;;5013087;28;20142;-80
2023/08/15 10:01:23;;;;;;;7.32;1.90;;;23.00;94.70;;;;;;5012832;28;20049;-80
2023/08/15 10:03:50;;;;;;;7.07;1.70;;;23.10;94.60;;;;;;5014170;28;20041;-80
2023/08/15 10:06:16;;;;;;;7.70;2.00;;;23.10;94.30;;;;;;5016603;28;20052;-80
2023/08/15 10:08:44;;;;;;;9.20;1.75;;;23.10;94.30;;;;;;5016764;28;20049;-80
2023/08/15 10:11:10;;;;;;;6.82;1.60;;;23.20;94.50;;;;;;5016680;28;20077;-80
2023/08/15 10:13:38;;;;;;;8.10;2.05;;;23.20;94.70;;;;;;5016591;28;20056;-80
2023/08/15 10:16:06;;;;;;;8.25;1.90;;;23.30;94.60;;;;;;5016523;28;20050;-80
2023/08/15 10:18:32;;;;;;;7.32;1.85;;;23.30;94.20;;;;;;5016338;28;20060;-80
2023/08/15 10:20:58;;;;;;;7.10;1.50;;;23.30;93.70;;;;;;5016590;28;20060;-80
2023/08/15 10:23:32;;;;;;;5.30;1.65;;;23.40;93.80;;;;;;5016483;28;20046;-80
2023/08/15 10:25:58;;;;;;;7.93;2.20;;;23.40;93.50;;;;;;5016482;28;20050;-80
2023/08/15 10:28:28;;;;;;;8.88;2.00;;;23.40;93.70;;;;;;5016098;28;20092;-80
2023/08/15 10:30:54;;;;;;;8.57;2.05;;;23.50;93.70;;;;;;5016169;28;20042;-80
2023/08/15 10:33:26;;;;;;;7.18;1.70;;;23.50;93.50;;;;;;5016032;28;20496;-80
2023/08/15 10:35:54;;;;;;;7.00;1.50;;;23.50;93.50;;;;;;5016200;28;20065;-80
2023/08/15 10:38:30;;;;;;;6.35;1.88;;;23.50;94.20;;;;;;5016143;28;20095;-80
2023/08/15 10:41:13;;;;;;;7.40;2.00;;;23.60;93.90;;;;;;5016139;28;20054;-80
2023/08/15 10:43:39;;;;;;;8.85;2.00;;;23.60;93.60;;;;;;5015939;28;20092;-80
2023/08/15 10:46:06;;;;;;;7.28;1.80;;;23.60;94.00;;;;;;5016057;28;20073;-80
2023/08/15 10:48:49;;;;;;;5.78;1.80;;;23.60;94.00;;;;;;5016148;28;20431;-80
2023/08/15 10:51:27;;;;;;;7.00;1.77;;;23.70;93.70;;;;;;5015867;28;20054;-80
2023/08/15 10:54:10;;;;;;;7.22;1.83;;;23.70;93.70;;;;;;5015684;28;20108;-80
2023/08/15 10:56:39;;;;;;;;;;;23.80;94.10;;;;;;5016419;28;20056;-80
2023/08/15 10:59:13;;;;;;;5.57;1.42;;;23.80;94.40;;;;;;5015983;28;19922;-80
2023/08/15 11:01:46;;;;;;;6.03;1.55;;;23.90;94.10;;;;;;5014420;28;20100;-80
2023/08/15 11:04:19;;;;;;;5.57;1.60;;;24.00;94.10;;;;;;5015340;28;20056;-80
2023/08/15 11:06:49;;;;;;;7.22;1.60;;;24.10;94.50;;;;;;5015809;28;20085;-80
2023/08/15 11:09:16;;;;;;;5.30;1.60;;;24.10;93.70;;;;;;5015839;28;20558;-80
2023/08/15 11:11:42;;;;;;;6.50;1.58;;;24.10;93.50;;;;;;5015554;28;20085;-80
2023/08/15 11:14:18;;;;;;;8.68;1.77;;;24.20;93.10;;;;;;5043230;28;20426;-80
2023/08/15 11:16:45;;;;;;;7.30;1.80;;;24.20;92.90;;;;;;5054091;28;20057;-80
2023/08/15 11:19:13;;;;;;;6.85;1.90;;;24.30;93.40;;;;;;5055002;28;20045;-80
2023/08/15 11:21:39;;;;;;;6.20;1.75;;;24.30;93.10;;;;;;5053295;28;20044;-80
2023/08/15 11:24:05;;;;;;;4.05;1.52;;;24.40;92.90;;;;;;5051199;28;20038;-80
2023/08/15 11:26:30;;;;;;;7.57;1.63;;;24.40;93.00;;;;;;5054771;28;20053;-80
2023/08/15 11:28:56;;;;;;;6.43;1.60;;;24.50;93.20;;;;;;5055335;28;20055;-80
2023/08/15 11:31:23;;;;;;;8.98;1.95;;;24.50;93.30;;;;;;5038025;28;20069;-80
2023/08/15 11:33:50;;;;;;;5.88;1.67;;;24.60;92.60;;;;;;5032565;28;20040;-80
2023/08/15 11:36:16;;;;;;;6.78;1.60;;;24.50;92.60;;;;;;5029005;28;20129;-80
2023/08/15 11:38:42;;;;;;;6.78;1.83;;;24.60;92.10;;;;;;5021169;28;20116;-79
2023/08/15 11:41:07;;;;;;;6.75;1.83;;;24.60;92.20;;;;;;5032378;28;20094;-79
2023/08/15 11:43:34;;;;;;;6.65;1.90;;;24.70;91.90;;;;;;5022782;28;20120;-80
2023/08/15 11:46:04;;;;;;;5.25;1.40;;;24.60;92.30;;;;;;5033505;28;20053;-80
2023/08/15 11:48:31;;;;;;;5.38;1.58;;;24.60;92.60;;;;;;5017687;28;20084;-79
2023/08/15 11:50:58;;;;;;;5.55;1.52;;;24.70;93.20;;;;;;5020654;28;20110;-80
2023/08/15 11:53:24;;;;;;;6.78;1.60;;;24.70;93.40;;;;;;5029474;28;20050;-80
2023/08/15 11:55:50;;;;;;;6.43;1.77;;;24.80;92.90;;;;;;5022163;28;20107;-80
2023/08/15 11:58:26;;;;;;;7.32;1.90;;;24.70;92.50;;;;;;5027885;28;20061;-80
2023/08/15 12:01:02;;;;;;;7.03;2.03;;;24.80;92.80;;;;;;5050458;28;20037;-80
2023/08/15 12:03:30;;;;;;;4.97;1.50;;;24.80;92.30;;;;;;5032826;28;20405;-80
2023/08/15 12:05:58;;;;;;;6.50;1.80;;;24.80;93.60;;;;;;5038836;28;20204;-80
2023/08/15 12:08:28;;;;;;;5.38;1.45;;;24.90;92.70;;;;;;5031575;28;20054;-80
2023/08/15 12:10:56;;;;;;;4.63;1.35;;;24.80;92.80;;;;;;5025406;28;20381;-80
2023/08/15 12:13:48;;;;;;;5.13;1.52;;;24.90;93.40;;;;;;5029306;28;20049;-80
2023/08/15 12:16:13;;;;;;;6.47;1.67;;;24.80;91.80;;;;;;4999108;28;20508;-80
2023/08/15 12:18:39;;;;;;;6.20;1.80;;;24.80;92.20;;;;;;5030336;28;20049;-80
2023/08/15 12:21:07;;;;;;;5.55;1.50;;;24.80;92.60;;;;;;5025297;28;20038;-80
2023/08/15 12:23:33;;;;;;;3.90;1.40;;;24.80;92.60;;;;;;5033444;28;20084;-80
2023/08/15 12:25:58;;;;;;;5.45;1.33;;;24.80;93.30;;;;;;5029577;28;20080;-79
2023/08/15 12:28:24;;;;;;;5.25;1.13;;;24.80;93.20;;;;;;5042658;28;20457;-80
2023/08/15 12:30:50;;;;;;;6.47;1.70;;;24.80;92.30;;;;;;5029960;28;20117;-80
2023/08/15 12:33:15;;;;;;;6.47;1.50;;;24.80;92.20;;;;;;5021096;28;20098;-80
2023/08/15 12:35:41;;;;;;;4.07;1.23;;;24.80;91.80;;;;;;5033311;28;20037;-80
2023/08/15 12:38:07;;;;;;;4.68;1.42;;;24.80;92.00;;;;;;5032616;28;20041;-80
2023/08/15 12:40:32;;;;;;;5.25;1.23;;;24.70;92.00;;;;;;5049168;28;20041;-80
2023/08/15 12:42:58;;;;;;;6.80;1.40;;;24.70;91.90;;;;;;5034667;28;20095;-80
2023/08/15 12:45:25;;;;;;;4.35;1.13;;;24.80;91.90;;;;;;5033562;28;20492;-80